WZZ4616 HESX-LCLK
Flight info
| Callsign | WZZ4616 |
|---|---|
| Flight time | 1h 1m |
| Altitude | 34000 |
| Route | CVO A16 RASDA M28 BETID |
| Aircraft | A321/M-SDE3FGHIRWY/LB1 |
Departure
| Time | 2026-05-08 04:52 |
|---|---|
| Airport | Sphinx International Airport (HESX) |
Arrival
| Time | 2026-05-08 05:54 |
|---|---|
| Airport | Larnaca International Airport (LCLK) |
| Time | Latitude | Longitude | Altitude | Speed | Heading |
|---|---|---|---|---|---|
| 2026-05-08 04:33 | 30.10791 | 30.89055 | 511 ft | 0 kts | 256° |
| 2026-05-08 04:41 | 30.10792 | 30.89060 | 510 ft | 3 kts | 256° |
| 2026-05-08 04:41 | 30.10799 | 30.89090 | 510 ft | 4 kts | 255° |
| 2026-05-08 04:41 | 30.10807 | 30.89120 | 510 ft | 4 kts | 240° |
| 2026-05-08 04:41 | 30.10821 | 30.89138 | 511 ft | 3 kts | 174° |
| 2026-05-08 04:42 | 30.10825 | 30.89138 | 511 ft | 0 kts | 166° |
| 2026-05-08 04:46 | 30.10816 | 30.89140 | 511 ft | 3 kts | 166° |
| 2026-05-08 04:46 | 30.10778 | 30.89151 | 510 ft | 8 kts | 165° |
| 2026-05-08 04:46 | 30.10710 | 30.89172 | 510 ft | 12 kts | 165° |
| 2026-05-08 04:46 | 30.10626 | 30.89197 | 511 ft | 13 kts | 165° |
| 2026-05-08 04:47 | 30.10580 | 30.89240 | 511 ft | 8 kts | 96° |
| 2026-05-08 04:47 | 30.10591 | 30.89306 | 511 ft | 9 kts | 75° |
| 2026-05-08 04:47 | 30.10608 | 30.89375 | 513 ft | 7 kts | 75° |
| 2026-05-08 04:47 | 30.10613 | 30.89398 | 516 ft | 1 kts | 75° |
| 2026-05-08 04:48 | 30.10620 | 30.89429 | 518 ft | 9 kts | 75° |
| 2026-05-08 04:48 | 30.10640 | 30.89519 | 520 ft | 12 kts | 75° |
| 2026-05-08 04:48 | 30.10640 | 30.89609 | 521 ft | 12 kts | 123° |
| 2026-05-08 04:48 | 30.10570 | 30.89644 | 523 ft | 12 kts | 166° |
| 2026-05-08 04:49 | 30.10452 | 30.89679 | 522 ft | 23 kts | 166° |
| 2026-05-08 04:49 | 30.10282 | 30.89729 | 519 ft | 26 kts | 166° |
| 2026-05-08 04:49 | 30.10102 | 30.89781 | 516 ft | 27 kts | 165° |
| 2026-05-08 04:49 | 30.09917 | 30.89837 | 515 ft | 28 kts | 165° |
| 2026-05-08 04:50 | 30.09722 | 30.89894 | 512 ft | 29 kts | 166° |
| 2026-05-08 04:50 | 30.09537 | 30.89948 | 515 ft | 24 kts | 165° |
| 2026-05-08 04:50 | 30.09408 | 30.89988 | 516 ft | 12 kts | 159° |
| 2026-05-08 04:50 | 30.09361 | 30.90051 | 516 ft | 11 kts | 130° |
| 2026-05-08 04:51 | 30.09296 | 30.90093 | 517 ft | 11 kts | 165° |
| 2026-05-08 04:51 | 30.09244 | 30.90066 | 517 ft | 8 kts | 244° |
| 2026-05-08 04:51 | 30.09281 | 30.90023 | 516 ft | 9 kts | 343° |
| 2026-05-08 04:51 | 30.09410 | 30.89984 | 516 ft | 46 kts | 346° |
| 2026-05-08 04:52 | 30.09968 | 30.89820 | 515 ft | 116 kts | 346° |
| 2026-05-08 04:52 | 30.10944 | 30.89533 | 521 ft | 171 kts | 345° |
| 2026-05-08 04:52 | 30.12144 | 30.89169 | 1051 ft | 178 kts | 348° |
| 2026-05-08 04:52 | 30.13352 | 30.88827 | 1829 ft | 179 kts | 351° |
| 2026-05-08 04:53 | 30.14565 | 30.88486 | 2539 ft | 185 kts | 353° |
| 2026-05-08 04:53 | 30.15842 | 30.88117 | 2908 ft | 195 kts | 351° |
| 2026-05-08 04:53 | 30.17207 | 30.87714 | 3146 ft | 209 kts | 354° |
| 2026-05-08 04:53 | 30.18701 | 30.87728 | 3273 ft | 227 kts | 17° |
| 2026-05-08 04:54 | 30.20276 | 30.88193 | 3755 ft | 239 kts | 18° |
| 2026-05-08 04:54 | 30.21905 | 30.88714 | 4371 ft | 246 kts | 16° |
| 2026-05-08 04:54 | 30.23580 | 30.89213 | 5070 ft | 251 kts | 15° |
| 2026-05-08 04:54 | 30.25293 | 30.89698 | 5761 ft | 255 kts | 14° |
| 2026-05-08 04:55 | 30.27019 | 30.90187 | 6471 ft | 257 kts | 14° |
| 2026-05-08 04:55 | 30.28773 | 30.90676 | 7135 ft | 260 kts | 13° |
| 2026-05-08 04:55 | 30.30545 | 30.91166 | 7800 ft | 263 kts | 13° |
| 2026-05-08 04:55 | 30.32327 | 30.91660 | 8430 ft | 265 kts | 13° |
| 2026-05-08 04:56 | 30.34131 | 30.92162 | 9093 ft | 268 kts | 13° |
| 2026-05-08 04:56 | 30.35954 | 30.92669 | 9736 ft | 271 kts | 13° |
| 2026-05-08 04:56 | 30.37798 | 30.93183 | 10314 ft | 276 kts | 12° |
| 2026-05-08 04:56 | 30.39735 | 30.93726 | 10449 ft | 297 kts | 12° |
| 2026-05-08 04:57 | 30.41813 | 30.94309 | 10575 ft | 317 kts | 13° |
| 2026-05-08 04:57 | 30.43264 | 30.94717 | 10654 ft | 330 kts | 13° |
| 2026-05-08 04:57 | 30.45560 | 30.95362 | 10774 ft | 348 kts | 13° |
| 2026-05-08 04:57 | 30.47965 | 30.96038 | 11002 ft | 361 kts | 12° |
| 2026-05-08 04:58 | 30.50428 | 30.96733 | 11471 ft | 367 kts | 12° |
| 2026-05-08 04:58 | 30.52915 | 30.97434 | 12000 ft | 371 kts | 12° |
| 2026-05-08 04:58 | 30.55435 | 30.98144 | 12521 ft | 375 kts | 12° |
| 2026-05-08 04:58 | 30.57990 | 30.98863 | 13061 ft | 379 kts | 12° |
| 2026-05-08 04:59 | 30.60580 | 30.99588 | 13591 ft | 383 kts | 12° |
| 2026-05-08 04:59 | 30.63188 | 31.00321 | 14112 ft | 388 kts | 12° |
| 2026-05-08 04:59 | 30.65791 | 31.01058 | 14617 ft | 391 kts | 12° |
| 2026-05-08 04:59 | 30.68439 | 31.01809 | 15151 ft | 394 kts | 12° |
| 2026-05-08 05:00 | 30.71119 | 31.02569 | 15696 ft | 397 kts | 11° |
| 2026-05-08 05:00 | 30.73811 | 31.03333 | 16258 ft | 400 kts | 11° |
| 2026-05-08 05:00 | 30.76516 | 31.04097 | 16798 ft | 402 kts | 11° |
| 2026-05-08 05:00 | 30.79247 | 31.04867 | 17324 ft | 405 kts | 11° |
| 2026-05-08 05:01 | 30.81996 | 31.05641 | 17842 ft | 408 kts | 11° |
| 2026-05-08 05:01 | 30.84771 | 31.06423 | 18333 ft | 411 kts | 11° |
| 2026-05-08 05:01 | 30.87551 | 31.07210 | 18761 ft | 413 kts | 10° |
| 2026-05-08 05:01 | 30.90351 | 31.08005 | 19203 ft | 415 kts | 10° |
| 2026-05-08 05:02 | 30.93160 | 31.08806 | 19656 ft | 416 kts | 10° |
| 2026-05-08 05:02 | 30.95978 | 31.09609 | 20104 ft | 418 kts | 10° |
| 2026-05-08 05:02 | 30.98812 | 31.10419 | 20540 ft | 419 kts | 10° |
| 2026-05-08 05:02 | 31.01650 | 31.11229 | 20974 ft | 420 kts | 10° |
| 2026-05-08 05:03 | 31.04497 | 31.12039 | 21399 ft | 422 kts | 10° |
| 2026-05-08 05:03 | 31.07354 | 31.12848 | 21815 ft | 423 kts | 10° |
| 2026-05-08 05:03 | 31.10221 | 31.13661 | 22227 ft | 425 kts | 10° |
| 2026-05-08 05:03 | 31.13098 | 31.14478 | 22632 ft | 426 kts | 10° |
| 2026-05-08 05:04 | 31.15985 | 31.15301 | 23030 ft | 428 kts | 10° |
| 2026-05-08 05:04 | 31.18882 | 31.16128 | 23433 ft | 429 kts | 10° |
| 2026-05-08 05:04 | 31.21796 | 31.16917 | 23789 ft | 429 kts | 6° |
| 2026-05-08 05:04 | 31.24752 | 31.17240 | 24106 ft | 427 kts | 357° |
| 2026-05-08 05:05 | 31.27709 | 31.16978 | 24433 ft | 425 kts | 349° |
| 2026-05-08 05:05 | 31.30627 | 31.16421 | 24763 ft | 425 kts | 349° |
| 2026-05-08 05:05 | 31.33551 | 31.15871 | 25101 ft | 426 kts | 349° |
| 2026-05-08 05:05 | 31.36479 | 31.15326 | 25444 ft | 426 kts | 349° |
| 2026-05-08 05:06 | 31.39411 | 31.14781 | 25790 ft | 427 kts | 349° |
| 2026-05-08 05:06 | 31.42306 | 31.14239 | 26135 ft | 427 kts | 349° |
| 2026-05-08 05:06 | 31.45246 | 31.13688 | 26464 ft | 428 kts | 349° |
| 2026-05-08 05:06 | 31.48189 | 31.13138 | 26815 ft | 428 kts | 349° |
| 2026-05-08 05:07 | 31.51110 | 31.12592 | 27277 ft | 424 kts | 349° |
| 2026-05-08 05:07 | 31.54025 | 31.12069 | 27752 ft | 422 kts | 350° |
| 2026-05-08 05:07 | 31.56930 | 31.11666 | 28218 ft | 419 kts | 352° |
| 2026-05-08 05:07 | 31.59825 | 31.11359 | 28683 ft | 416 kts | 353° |
| 2026-05-08 05:08 | 31.62703 | 31.11100 | 29161 ft | 413 kts | 353° |
| 2026-05-08 05:08 | 31.65561 | 31.10849 | 29647 ft | 410 kts | 353° |
| 2026-05-08 05:08 | 31.68397 | 31.10587 | 30120 ft | 407 kts | 352° |
| 2026-05-08 05:08 | 31.71210 | 31.10311 | 30530 ft | 404 kts | 352° |
| 2026-05-08 05:09 | 31.74008 | 31.10018 | 30900 ft | 401 kts | 352° |
| 2026-05-08 05:09 | 31.76782 | 31.09715 | 31264 ft | 399 kts | 352° |
| 2026-05-08 05:09 | 31.79550 | 31.09410 | 31612 ft | 398 kts | 352° |
| 2026-05-08 05:09 | 31.82299 | 31.09107 | 31954 ft | 396 kts | 352° |
| 2026-05-08 05:10 | 31.85037 | 31.08810 | 32288 ft | 394 kts | 351° |
| 2026-05-08 05:10 | 31.90478 | 31.08225 | 32969 ft | 391 kts | 351° |
| 2026-05-08 05:10 | 31.93181 | 31.07934 | 33302 ft | 389 kts | 351° |
| 2026-05-08 05:11 | 31.95874 | 31.07646 | 33626 ft | 388 kts | 351° |
| 2026-05-08 05:11 | 31.98563 | 31.07359 | 33956 ft | 386 kts | 351° |
| 2026-05-08 05:11 | 32.01241 | 31.07072 | 34127 ft | 386 kts | 351° |
| 2026-05-08 05:12 | 32.06588 | 31.06493 | 34154 ft | 386 kts | 351° |
| 2026-05-08 05:12 | 32.11943 | 31.05903 | 34154 ft | 386 kts | 351° |
| 2026-05-08 05:13 | 32.17286 | 31.05314 | 34157 ft | 385 kts | 351° |
| 2026-05-08 05:13 | 32.22617 | 31.04721 | 34158 ft | 385 kts | 351° |
| 2026-05-08 05:14 | 32.27913 | 31.04138 | 34156 ft | 385 kts | 351° |
| 2026-05-08 05:14 | 32.33282 | 31.03546 | 34160 ft | 385 kts | 351° |
| 2026-05-08 05:15 | 32.38587 | 31.02957 | 34177 ft | 385 kts | 351° |
| 2026-05-08 05:15 | 32.43919 | 31.02370 | 34176 ft | 385 kts | 351° |
| 2026-05-08 05:16 | 32.49265 | 31.01777 | 34176 ft | 385 kts | 351° |
| 2026-05-08 05:16 | 32.54607 | 31.01184 | 34175 ft | 385 kts | 351° |
| 2026-05-08 05:17 | 32.59947 | 31.00589 | 34174 ft | 385 kts | 351° |
| 2026-05-08 05:17 | 32.65294 | 30.99997 | 34185 ft | 385 kts | 351° |
| 2026-05-08 05:18 | 32.70626 | 30.99410 | 34182 ft | 385 kts | 351° |
| 2026-05-08 05:18 | 32.75962 | 30.98817 | 34179 ft | 385 kts | 351° |
| 2026-05-08 05:19 | 32.81297 | 30.98214 | 34178 ft | 385 kts | 351° |
| 2026-05-08 05:19 | 32.86633 | 30.97616 | 34193 ft | 385 kts | 351° |
| 2026-05-08 05:20 | 32.91968 | 30.97019 | 34188 ft | 385 kts | 350° |
| 2026-05-08 05:20 | 32.97262 | 30.96429 | 34185 ft | 385 kts | 351° |
| 2026-05-08 05:21 | 33.02628 | 30.95834 | 34174 ft | 385 kts | 350° |
| 2026-05-08 05:21 | 33.07971 | 30.96139 | 34178 ft | 399 kts | 9° |
| 2026-05-08 05:21 | 33.10577 | 30.97393 | 34189 ft | 411 kts | 21° |
| 2026-05-08 05:22 | 33.12944 | 30.99410 | 34175 ft | 427 kts | 33° |
| 2026-05-08 05:22 | 33.16913 | 31.04875 | 34178 ft | 438 kts | 40° |
| 2026-05-08 05:23 | 33.20796 | 31.10489 | 34170 ft | 439 kts | 40° |
| 2026-05-08 05:23 | 33.24683 | 31.16115 | 34173 ft | 439 kts | 40° |
| 2026-05-08 05:24 | 33.28575 | 31.21746 | 34185 ft | 440 kts | 40° |
| 2026-05-08 05:24 | 33.32470 | 31.27376 | 34198 ft | 440 kts | 40° |
| 2026-05-08 05:25 | 33.36365 | 31.33011 | 34188 ft | 439 kts | 40° |
| 2026-05-08 05:25 | 33.40255 | 31.38646 | 34185 ft | 439 kts | 40° |
| 2026-05-08 05:26 | 33.44143 | 31.44293 | 34190 ft | 439 kts | 40° |
| 2026-05-08 05:26 | 33.48018 | 31.49936 | 34186 ft | 439 kts | 40° |
| 2026-05-08 05:27 | 33.51895 | 31.55590 | 34196 ft | 439 kts | 40° |
| 2026-05-08 05:27 | 33.55770 | 31.61250 | 34188 ft | 438 kts | 40° |
| 2026-05-08 05:28 | 33.59616 | 31.66860 | 34195 ft | 438 kts | 40° |
| 2026-05-08 05:28 | 33.63472 | 31.72515 | 34185 ft | 438 kts | 40° |
| 2026-05-08 05:29 | 33.67320 | 31.78164 | 34180 ft | 437 kts | 40° |
| 2026-05-08 05:29 | 33.71178 | 31.83820 | 34188 ft | 437 kts | 40° |
| 2026-05-08 05:30 | 33.75022 | 31.89471 | 34201 ft | 436 kts | 40° |
| 2026-05-08 05:30 | 33.78855 | 31.95121 | 34190 ft | 436 kts | 40° |
| 2026-05-08 05:31 | 33.82685 | 32.00772 | 34178 ft | 436 kts | 40° |
| 2026-05-08 05:31 | 33.86512 | 32.06439 | 34175 ft | 436 kts | 40° |
| 2026-05-08 05:32 | 33.90306 | 32.12136 | 34186 ft | 436 kts | 40° |
| 2026-05-08 05:32 | 33.94062 | 32.17860 | 34175 ft | 435 kts | 40° |
| 2026-05-08 05:33 | 33.97807 | 32.23585 | 34172 ft | 435 kts | 40° |
| 2026-05-08 05:33 | 34.01546 | 32.29311 | 34168 ft | 434 kts | 40° |
| 2026-05-08 05:34 | 34.05265 | 32.35000 | 34193 ft | 434 kts | 40° |
| 2026-05-08 05:34 | 34.09007 | 32.40715 | 34182 ft | 434 kts | 40° |
| 2026-05-08 05:35 | 34.12764 | 32.46473 | 34171 ft | 433 kts | 40° |
| 2026-05-08 05:35 | 34.16483 | 32.52191 | 34082 ft | 434 kts | 40° |
| 2026-05-08 05:35 | 34.18345 | 32.55050 | 33802 ft | 433 kts | 41° |
| 2026-05-08 05:36 | 34.20211 | 32.57916 | 33530 ft | 433 kts | 41° |
| 2026-05-08 05:36 | 34.22075 | 32.60781 | 33280 ft | 434 kts | 41° |
| 2026-05-08 05:36 | 34.23920 | 32.63616 | 32768 ft | 436 kts | 42° |
| 2026-05-08 05:36 | 34.25830 | 32.66548 | 31950 ft | 439 kts | 43° |
| 2026-05-08 05:37 | 34.27699 | 32.69419 | 31133 ft | 442 kts | 43° |
| 2026-05-08 05:37 | 34.29612 | 32.72359 | 30265 ft | 447 kts | 44° |
| 2026-05-08 05:37 | 34.31543 | 32.75342 | 29247 ft | 453 kts | 45° |
| 2026-05-08 05:37 | 34.33485 | 32.78358 | 28272 ft | 456 kts | 46° |
| 2026-05-08 05:38 | 34.35449 | 32.81415 | 27224 ft | 462 kts | 46° |
| 2026-05-08 05:38 | 34.37434 | 32.84501 | 26159 ft | 468 kts | 47° |
| 2026-05-08 05:38 | 34.39450 | 32.87645 | 25028 ft | 475 kts | 48° |
| 2026-05-08 05:38 | 34.41489 | 32.90823 | 23996 ft | 481 kts | 49° |
| 2026-05-08 05:39 | 34.43519 | 32.94056 | 22990 ft | 484 kts | 53° |
| 2026-05-08 05:39 | 34.45183 | 32.97586 | 22179 ft | 482 kts | 63° |
| 2026-05-08 05:39 | 34.46348 | 33.01389 | 21333 ft | 481 kts | 72° |
| 2026-05-08 05:39 | 34.47211 | 33.05293 | 20515 ft | 477 kts | 73° |
| 2026-05-08 05:40 | 34.48066 | 33.09150 | 19679 ft | 474 kts | 73° |
| 2026-05-08 05:40 | 34.48918 | 33.12974 | 19130 ft | 465 kts | 73° |
| 2026-05-08 05:40 | 34.49758 | 33.16732 | 18448 ft | 459 kts | 73° |
| 2026-05-08 05:40 | 34.50589 | 33.20448 | 17659 ft | 454 kts | 73° |
| 2026-05-08 05:41 | 34.51410 | 33.24121 | 16899 ft | 449 kts | 73° |
| 2026-05-08 05:41 | 34.52218 | 33.27759 | 16154 ft | 443 kts | 73° |
| 2026-05-08 05:41 | 34.53010 | 33.31339 | 15436 ft | 438 kts | 73° |
| 2026-05-08 05:41 | 34.53529 | 33.33696 | 14970 ft | 435 kts | 73° |
| 2026-05-08 05:42 | 34.54304 | 33.37220 | 14303 ft | 430 kts | 73° |
| 2026-05-08 05:42 | 34.55069 | 33.40707 | 13639 ft | 426 kts | 73° |
| 2026-05-08 05:42 | 34.55825 | 33.44158 | 12963 ft | 421 kts | 73° |
| 2026-05-08 05:42 | 34.56570 | 33.47572 | 12347 ft | 416 kts | 73° |
| 2026-05-08 05:43 | 34.57532 | 33.51973 | 12072 ft | 396 kts | 73° |
| 2026-05-08 05:43 | 34.57999 | 33.54116 | 11985 ft | 384 kts | 73° |
| 2026-05-08 05:43 | 34.58665 | 33.57170 | 11853 ft | 363 kts | 73° |
| 2026-05-08 05:43 | 34.59286 | 33.60027 | 11732 ft | 338 kts | 73° |
| 2026-05-08 05:44 | 34.59864 | 33.62697 | 11595 ft | 317 kts | 73° |
| 2026-05-08 05:44 | 34.60411 | 33.65228 | 11275 ft | 305 kts | 73° |
| 2026-05-08 05:44 | 34.60951 | 33.67706 | 10887 ft | 302 kts | 73° |
| 2026-05-08 05:44 | 34.61532 | 33.70141 | 10567 ft | 298 kts | 66° |
| 2026-05-08 05:45 | 34.62552 | 33.72282 | 10297 ft | 290 kts | 49° |
| 2026-05-08 05:45 | 34.64003 | 33.73924 | 10155 ft | 284 kts | 33° |
| 2026-05-08 05:45 | 34.65763 | 33.75022 | 9722 ft | 288 kts | 17° |
| 2026-05-08 05:45 | 34.67691 | 33.75603 | 9394 ft | 284 kts | 13° |
| 2026-05-08 05:46 | 34.69604 | 33.76161 | 9020 ft | 282 kts | 13° |
| 2026-05-08 05:46 | 34.71507 | 33.76733 | 8638 ft | 281 kts | 14° |
| 2026-05-08 05:46 | 34.73404 | 33.77309 | 8275 ft | 280 kts | 14° |
| 2026-05-08 05:46 | 34.75286 | 33.77878 | 7921 ft | 278 kts | 14° |
| 2026-05-08 05:47 | 34.77158 | 33.78442 | 7570 ft | 276 kts | 14° |
| 2026-05-08 05:47 | 34.79018 | 33.79002 | 7231 ft | 275 kts | 14° |
| 2026-05-08 05:47 | 34.80868 | 33.79559 | 6885 ft | 273 kts | 14° |
| 2026-05-08 05:47 | 34.82703 | 33.80114 | 6547 ft | 272 kts | 15° |
| 2026-05-08 05:48 | 34.84531 | 33.80670 | 6208 ft | 270 kts | 15° |
| 2026-05-08 05:48 | 34.86365 | 33.81229 | 5510 ft | 281 kts | 15° |
| 2026-05-08 05:48 | 34.88272 | 33.81808 | 4874 ft | 281 kts | 14° |
| 2026-05-08 05:48 | 34.90151 | 33.82373 | 4568 ft | 268 kts | 14° |
| 2026-05-08 05:49 | 34.91890 | 33.82894 | 4309 ft | 254 kts | 14° |
| 2026-05-08 05:49 | 34.93612 | 33.83037 | 4054 ft | 244 kts | 354° |
| 2026-05-08 05:49 | 34.95206 | 33.82440 | 3835 ft | 238 kts | 334° |
| 2026-05-08 05:49 | 34.96496 | 33.81236 | 3579 ft | 232 kts | 314° |
| 2026-05-08 05:50 | 34.97354 | 33.79597 | 3303 ft | 229 kts | 294° |
| 2026-05-08 05:50 | 34.97711 | 33.77721 | 2986 ft | 228 kts | 275° |
| 2026-05-08 05:50 | 34.97541 | 33.75835 | 2669 ft | 220 kts | 256° |
| 2026-05-08 05:50 | 34.96906 | 33.74177 | 2312 ft | 213 kts | 237° |
| 2026-05-08 05:51 | 34.95933 | 33.72850 | 1960 ft | 207 kts | 226° |
| 2026-05-08 05:51 | 34.94928 | 33.71630 | 1602 ft | 199 kts | 226° |
| 2026-05-08 05:51 | 34.93982 | 33.70477 | 1276 ft | 185 kts | 226° |
| 2026-05-08 05:51 | 34.93124 | 33.69430 | 1032 ft | 166 kts | 227° |
| 2026-05-08 05:52 | 34.92328 | 33.68461 | 881 ft | 158 kts | 227° |
| 2026-05-08 05:52 | 34.91559 | 33.67524 | 717 ft | 154 kts | 226° |
| 2026-05-08 05:52 | 34.90817 | 33.66602 | 615 ft | 152 kts | 227° |
| 2026-05-08 05:52 | 34.90076 | 33.65682 | 510 ft | 151 kts | 227° |
| 2026-05-08 05:53 | 34.89334 | 33.64782 | 334 ft | 151 kts | 226° |
| 2026-05-08 05:53 | 34.88587 | 33.63890 | 215 ft | 153 kts | 229° |
| 2026-05-08 05:53 | 34.87847 | 33.62965 | 40 ft | 152 kts | 227° |
| 2026-05-08 05:53 | 34.87181 | 33.62134 | 21 ft | 115 kts | 222° |
| 2026-05-08 05:54 | 34.86731 | 33.61601 | 17 ft | 66 kts | 225° |
| 2026-05-08 05:54 | 34.86532 | 33.61356 | 20 ft | 16 kts | 237° |
| 2026-05-08 05:54 | 34.86505 | 33.61243 | 21 ft | 14 kts | 257° |
| 2026-05-08 05:54 | 34.86482 | 33.61125 | 22 ft | 14 kts | 256° |
| 2026-05-08 05:55 | 34.86526 | 33.61040 | 22 ft | 14 kts | 349° |
| 2026-05-08 05:55 | 34.86611 | 33.61085 | 22 ft | 9 kts | 15° |
| 2026-05-08 05:55 | 34.86667 | 33.61048 | 21 ft | 10 kts | 316° |
| 2026-05-08 05:55 | 34.86719 | 33.60986 | 20 ft | 11 kts | 315° |
| 2026-05-08 05:56 | 34.86777 | 33.60914 | 20 ft | 13 kts | 315° |
| 2026-05-08 05:56 | 34.86837 | 33.60842 | 20 ft | 6 kts | 315° |
| 2026-05-08 05:56 | 34.86863 | 33.60842 | 20 ft | 4 kts | 30° |
| 2026-05-08 05:56 | 34.86894 | 33.60877 | 22 ft | 7 kts | 45° |
| 2026-05-08 05:57 | 34.86907 | 33.60894 | 20 ft | 0 kts | 45° |
| 2026-05-08 06:00 | 34.86908 | 33.60894 | 20 ft | 0 kts | 45° |